Time;durP1;ratioP1;P1;durP2;ratioP2;P2;SDS_P1;SDS_P2;PMS_P1;PMS_P2;Temp;Humidity;BMP_temperature;BMP_pressure;BME280_temperature;BME280_humidity;BME280_pressure;Samples;Min_cycle;Max_cycle;Signal;HPM_P1;HPM_P2
2023/04/19 00:00:37;;;;;;;5.37;4.87;;;7.80;99.90;;;;;;5052775;28;20788;-46
2023/04/19 00:03:05;;;;;;;8.70;4.97;;;7.90;99.90;;;;;;5052812;28;20485;-48
2023/04/19 00:05:32;;;;;;;6.90;4.33;;;7.80;99.90;;;;;;5051540;28;20450;-49
2023/04/19 00:07:59;;;;;;;7.23;4.23;;;7.90;99.90;;;;;;5051458;28;20429;-46
2023/04/19 00:10:27;;;;;;;7.90;3.97;;;7.90;99.90;;;;;;5050064;28;20519;-46
2023/04/19 00:12:54;;;;;;;7.73;4.57;;;8.10;99.90;;;;;;5052640;28;20509;-47
2023/04/19 00:15:21;;;;;;;11.30;4.73;;;8.00;99.90;;;;;;5051691;28;20416;-48
2023/04/19 00:17:48;;;;;;;5.40;4.43;;;8.10;99.90;;;;;;5051568;28;20454;-47
2023/04/19 00:20:15;;;;;;;6.20;3.90;;;7.90;99.90;;;;;;5050876;28;20475;-47
2023/04/19 00:22:42;;;;;;;7.37;4.50;;;7.70;99.90;;;;;;5050970;28;20485;-46
2023/04/19 00:25:09;;;;;;;6.43;3.97;;;7.90;99.90;;;;;;5052556;28;20465;-48
2023/04/19 00:27:37;;;;;;;4.80;4.00;;;7.90;99.90;;;;;;5051238;28;20449;-46
2023/04/19 00:30:06;;;;;;;6.30;4.03;;;8.00;99.60;;;;;;5050729;28;20974;-48
2023/04/19 00:32:33;;;;;;;5.00;3.63;;;7.90;99.60;;;;;;5051315;28;20512;-47
2023/04/19 00:35:00;;;;;;;7.70;4.20;;;8.00;99.30;;;;;;5051117;28;20861;-47
2023/04/19 00:37:27;;;;;;;5.60;3.93;;;7.70;99.20;;;;;;5052486;28;20894;-48
2023/04/19 00:39:54;;;;;;;7.73;3.83;;;7.80;99.00;;;;;;5050807;28;20452;-46
2023/04/19 00:42:21;;;;;;;7.37;4.23;;;7.80;99.20;;;;;;5053660;28;20793;-48
2023/04/19 00:44:52;;;;;;;7.83;5.30;;;7.70;98.80;;;;;;5051862;28;20424;-47
2023/04/19 00:47:19;;;;;;;8.20;4.03;;;7.70;98.70;;;;;;5051351;28;20439;-46
2023/04/19 00:49:47;;;;;;;7.73;3.97;;;7.60;98.50;;;;;;5052631;28;20401;-46
2023/04/19 00:52:14;;;;;;;5.17;3.60;;;7.70;98.70;;;;;;5053000;28;20539;-47
2023/04/19 00:54:43;;;;;;;4.33;3.53;;;7.90;98.90;;;;;;5054807;28;20434;-46
2023/04/19 00:57:13;;;;;;;7.33;3.70;;;7.60;98.80;;;;;;5053578;28;20428;-46
2023/04/19 00:59:42;;;;;;;7.53;4.10;;;7.50;98.60;;;;;;5052714;28;20420;-46
2023/04/19 01:02:11;;;;;;;6.20;3.77;;;7.60;98.60;;;;;;5052991;28;20512;-47
2023/04/19 01:04:39;;;;;;;5.60;3.47;;;7.80;98.70;;;;;;5052487;28;20551;-46
2023/04/19 01:07:06;;;;;;;4.63;3.10;;;7.70;98.70;;;;;;5052203;28;20555;-47
2023/04/19 01:09:39;;;;;;;6.00;3.40;;;7.20;98.60;;;;;;5051659;28;20433;-49
2023/04/19 01:12:06;;;;;;;9.00;4.23;;;7.30;98.60;;;;;;5052040;28;20442;-48
2023/04/19 01:14:33;;;;;;;5.20;3.87;;;7.30;98.60;;;;;;5052500;28;20528;-46
2023/04/19 01:17:00;;;;;;;5.47;3.80;;;7.30;98.60;;;;;;5050816;28;20494;-47
2023/04/19 01:19:28;;;;;;;4.50;3.07;;;6.80;98.60;;;;;;5050518;28;20506;-46
2023/04/19 01:21:57;;;;;;;7.03;3.67;;;7.50;98.90;;;;;;5053855;28;20469;-45
2023/04/19 01:24:25;;;;;;;6.10;3.73;;;7.00;98.80;;;;;;5055271;28;20488;-47
2023/04/19 01:26:52;;;;;;;7.67;3.23;;;7.20;99.00;;;;;;5055556;28;20461;-46
2023/04/19 01:29:21;;;;;;;9.73;3.60;;;7.20;99.10;;;;;;5054039;28;20424;-48
2023/04/19 01:31:50;;;;;;;6.50;3.53;;;7.20;99.50;;;;;;5054244;28;20497;-45
2023/04/19 01:34:17;;;;;;;7.93;3.33;;;6.90;99.00;;;;;;5055663;28;20494;-47
2023/04/19 01:36:44;;;;;;;8.07;3.73;;;7.00;99.20;;;;;;5054677;28;20454;-46
2023/04/19 01:39:12;;;;;;;4.80;3.93;;;7.20;99.40;;;;;;5054017;28;21065;-47
2023/04/19 01:41:41;;;;;;;5.57;4.07;;;6.80;99.30;;;;;;5055645;28;20419;-47
2023/04/19 01:44:09;;;;;;;11.03;3.50;;;6.60;99.30;;;;;;5054812;28;20459;-45
2023/04/19 01:46:37;;;;;;;5.37;4.27;;;6.80;99.50;;;;;;5054706;28;20522;-45
2023/04/19 01:49:04;;;;;;;8.43;4.23;;;6.80;99.90;;;;;;5054134;28;20430;-47
2023/04/19 01:51:31;;;;;;;7.10;4.13;;;6.80;99.70;;;;;;5054225;28;20473;-46
2023/04/19 01:53:58;;;;;;;5.23;3.70;;;6.90;99.70;;;;;;5054201;28;20552;-46
2023/04/19 01:56:27;;;;;;;5.03;3.50;;;6.80;99.60;;;;;;5055328;28;20429;-46
2023/04/19 01:58:58;;;;;;;5.10;3.80;;;6.60;99.70;;;;;;5053592;28;20431;-46
2023/04/19 02:01:25;;;;;;;12.40;3.70;;;6.60;99.80;;;;;;5054321;28;20506;-46
2023/04/19 02:03:52;;;;;;;4.17;3.77;;;6.70;99.70;;;;;;5053691;28;20550;-47
2023/04/19 02:06:20;;;;;;;4.90;3.20;;;6.60;99.80;;;;;;5053893;28;20934;-46
2023/04/19 02:08:48;;;;;;;4.90;3.77;;;6.70;99.80;;;;;;5054778;28;20515;-45
2023/04/19 02:11:15;;;;;;;7.53;3.93;;;6.60;99.80;;;;;;5053769;28;20537;-47
2023/04/19 02:13:42;;;;;;;9.83;3.60;;;6.50;99.90;;;;;;5053764;28;20883;-45
2023/04/19 02:16:11;;;;;;;8.03;4.07;;;6.60;99.90;;;;;;5053623;28;20418;-48
2023/04/19 02:18:39;;;;;;;4.50;3.40;;;6.50;99.90;;;;;;5053488;28;20430;-47
2023/04/19 02:21:07;;;;;;;4.93;3.23;;;6.50;99.90;;;;;;5054957;28;20452;-46
2023/04/19 02:23:34;;;;;;;5.00;3.30;;;6.50;99.90;;;;;;5053594;28;20993;-47
2023/04/19 02:26:02;;;;;;;8.47;3.40;;;6.50;99.90;;;;;;5054257;28;20521;-46
2023/04/19 02:28:29;;;;;;;5.80;3.47;;;6.40;99.90;;;;;;5054113;28;20916;-46
2023/04/19 02:30:56;;;;;;;8.20;3.90;;;6.50;99.90;;;;;;5054887;28;20513;-46
2023/04/19 02:33:25;;;;;;;4.70;3.37;;;6.40;99.90;;;;;;5055330;28;20766;-45
2023/04/19 02:35:53;;;;;;;4.20;3.63;;;6.30;99.90;;;;;;5054030;28;20915;-46
2023/04/19 02:38:20;;;;;;;16.63;4.30;;;6.20;99.90;;;;;;5054583;28;20469;-48
2023/04/19 02:40:49;;;;;;;6.60;4.80;;;6.20;99.90;;;;;;5055746;28;20435;-48
2023/04/19 02:43:16;;;;;;;6.07;5.33;;;6.40;99.90;;;;;;5055393;28;20467;-46
2023/04/19 02:45:43;;;;;;;3.90;3.13;;;6.20;99.90;;;;;;5053557;28;20407;-47
2023/04/19 02:48:13;;;;;;;5.93;3.23;;;6.40;99.90;;;;;;5054268;28;20436;-46
2023/04/19 02:50:43;;;;;;;3.70;2.70;;;5.50;99.90;;;;;;5053257;28;21029;-46
2023/04/19 02:53:10;;;;;;;5.80;3.40;;;6.10;99.90;;;;;;5053201;28;21013;-47
2023/04/19 02:55:38;;;;;;;3.57;3.00;;;6.30;99.90;;;;;;5053162;28;20488;-45
2023/04/19 02:58:08;;;;;;;10.03;3.17;;;6.30;99.90;;;;;;5052776;28;20539;-47
2023/04/19 03:00:42;;;;;;;6.40;3.43;;;6.20;99.90;;;;;;5053045;28;20557;-48
2023/04/19 03:03:13;;;;;;;8.33;3.80;;;6.30;99.90;;;;;;5053886;28;20438;-48
2023/04/19 03:05:40;;;;;;;6.37;3.60;;;5.90;99.90;;;;;;5053425;28;20525;-48
2023/04/19 03:08:09;;;;;;;5.10;2.90;;;6.20;99.90;;;;;;5053678;28;20473;-47
2023/04/19 03:10:37;;;;;;;6.87;3.23;;;6.10;99.90;;;;;;5054622;28;20474;-48
2023/04/19 03:13:04;;;;;;;5.10;3.23;;;5.90;99.90;;;;;;5055578;28;20885;-47
2023/04/19 03:15:31;;;;;;;4.77;2.70;;;6.20;99.90;;;;;;5054382;28;20451;-47
2023/04/19 03:17:57;;;;;;;4.57;3.37;;;5.80;99.90;;;;;;5055208;28;20527;-48
2023/04/19 03:20:25;;;;;;;3.03;2.30;;;6.00;99.90;;;;;;5054803;28;20421;-48
2023/04/19 03:22:52;;;;;;;8.13;2.97;;;6.00;99.90;;;;;;5055451;28;20772;-46
2023/04/19 03:25:21;;;;;;;3.80;3.10;;;5.80;99.90;;;;;;5052276;28;20491;-47
2023/04/19 03:27:56;;;;;;;4.40;3.40;;;6.00;99.90;;;;;;5052482;28;20610;-46
2023/04/19 03:30:42;;;;;;;4.43;3.00;;;6.00;99.90;;;;;;5052302;28;20447;-46
2023/04/19 03:33:09;;;;;;;7.20;3.27;;;5.80;99.90;;;;;;5052786;28;20426;-48
2023/04/19 03:35:39;;;;;;;3.70;2.60;;;5.40;99.90;;;;;;5052678;28;20728;-46
2023/04/19 03:38:10;;;;;;;4.00;2.63;;;6.10;99.90;;;;;;5051944;28;20450;-46
2023/04/19 03:40:39;;;;;;;6.83;3.50;;;5.80;99.90;;;;;;5052219;28;20460;-45
2023/04/19 03:43:09;;;;;;;7.97;2.92;;;5.60;99.90;;;;;;5052143;28;20454;-45
2023/04/19 03:45:36;;;;;;;4.80;3.40;;;5.70;99.90;;;;;;5052171;28;20224;-46
2023/04/19 03:48:03;;;;;;;5.77;3.00;;;5.70;99.90;;;;;;5052058;28;20517;-46
2023/04/19 03:50:31;;;;;;;6.93;3.07;;;5.80;99.90;;;;;;5051766;28;20429;-46
2023/04/19 03:52:58;;;;;;;5.50;2.63;;;5.60;99.90;;;;;;5056940;28;20482;-47
2023/04/19 03:55:27;;;;;;;5.33;3.10;;;5.40;99.90;;;;;;5055971;28;20444;-47
2023/04/19 03:57:55;;;;;;;7.20;3.20;;;5.20;99.90;;;;;;5054918;28;20418;-46
2023/04/19 04:00:33;;;;;;;4.18;2.92;;;5.60;99.90;;;;;;5054964;28;20811;-46
2023/04/19 04:03:01;;;;;;;10.30;4.20;;;5.50;99.90;;;;;;5056455;28;20204;-47
2023/04/19 04:05:28;;;;;;;4.20;3.00;;;5.60;99.90;;;;;;5056972;28;20481;-48
2023/04/19 04:07:56;;;;;;;4.90;3.00;;;5.50;99.90;;;;;;5055159;28;20456;-47
2023/04/19 04:10:24;;;;;;;7.47;3.47;;;5.40;99.90;;;;;;5055009;28;20421;-48
2023/04/19 04:12:52;;;;;;;8.80;3.50;;;5.30;99.90;;;;;;5056937;28;20431;-47
2023/04/19 04:15:27;;;;;;;6.83;3.73;;;5.50;99.90;;;;;;5054530;28;20470;-46
2023/04/19 04:17:54;;;;;;;6.13;3.00;;;5.60;99.90;;;;;;5053022;28;20427;-48
2023/04/19 04:20:21;;;;;;;9.23;4.07;;;5.70;99.90;;;;;;5051029;28;20261;-48
2023/04/19 04:22:51;;;;;;;6.07;3.55;;;5.00;99.90;;;;;;5051231;28;20472;-46
2023/04/19 04:25:20;;;;;;;8.33;3.10;;;5.60;99.90;;;;;;5052670;28;20303;-46
2023/04/19 04:27:51;;;;;;;5.15;3.15;;;5.40;99.90;;;;;;5051468;28;20447;-47
2023/04/19 04:30:20;;;;;;;7.47;2.83;;;5.60;99.90;;;;;;5050667;28;20192;-45
2023/04/19 04:32:50;;;;;;;5.80;3.60;;;5.40;99.90;;;;;;5051288;28;20417;-46
2023/04/19 04:35:17;;;;;;;7.37;3.27;;;5.40;99.90;;;;;;5051068;28;20877;-47
2023/04/19 04:37:52;;;;;;;5.50;3.80;;;5.30;99.90;;;;;;5051005;28;20486;-47
2023/04/19 04:40:20;;;;;;;5.73;3.50;;;5.40;99.90;;;;;;5050676;28;20445;-46
2023/04/19 04:42:48;;;;;;;6.50;3.08;;;5.60;99.90;;;;;;5050998;28;20425;-46
2023/04/19 04:45:17;;;;;;;7.43;3.50;;;5.50;99.90;;;;;;5050743;28;20216;-45
2023/04/19 04:47:46;;;;;;;7.33;3.47;;;5.30;99.90;;;;;;5050742;28;20218;-48
2023/04/19 04:50:15;;;;;;;6.87;3.20;;;5.60;99.90;;;;;;5050401;28;20435;-45
2023/04/19 04:52:42;;;;;;;5.87;3.10;;;5.70;99.90;;;;;;5050590;28;20438;-46
2023/04/19 04:55:13;;;;;;;7.35;3.25;;;5.60;99.90;;;;;;5050088;28;20782;-47
2023/04/19 04:57:43;;;;;;;6.43;3.58;;;5.30;99.90;;;;;;5050501;28;20231;-47
2023/04/19 05:00:17;;;;;;;6.47;3.20;;;5.40;99.90;;;;;;5049932;28;20682;-46
2023/04/19 05:02:53;;;;;;;9.82;3.33;;;5.30;99.90;;;;;;5050483;28;20433;-46
2023/04/19 05:05:24;;;;;;;5.33;3.43;;;5.30;99.90;;;;;;5050563;28;20231;-46
2023/04/19 05:07:51;;;;;;;8.43;3.27;;;5.40;99.90;;;;;;5050556;28;20454;-47
2023/04/19 05:10:18;;;;;;;8.90;3.60;;;5.40;99.90;;;;;;5049807;28;20546;-47
2023/04/19 05:12:48;;;;;;;6.75;2.70;;;5.60;99.90;;;;;;5050625;28;20429;-48
2023/04/19 05:15:15;;;;;;;7.30;3.83;;;5.10;99.90;;;;;;5050339;28;20208;-48
2023/04/19 05:17:50;;;;;;;6.03;3.55;;;5.70;99.90;;;;;;5050857;28;20474;-47
2023/04/19 05:20:18;;;;;;;12.65;4.05;;;5.60;99.90;;;;;;5050199;28;20205;-46
2023/04/19 05:22:49;;;;;;;10.40;3.10;;;5.80;99.90;;;;;;5050444;28;20342;-48
2023/04/19 05:25:16;;;;;;;5.10;3.17;;;5.60;99.90;;;;;;5050409;28;20874;-46
2023/04/19 05:27:43;;;;;;;5.73;3.07;;;6.20;99.90;;;;;;5050229;28;20549;-47
2023/04/19 05:30:11;;;;;;;5.20;2.87;;;6.20;99.90;;;;;;5050025;28;20473;-46
2023/04/19 05:32:42;;;;;;;5.23;2.83;;;6.00;99.90;;;;;;5051353;28;20931;-48
2023/04/19 05:35:11;;;;;;;7.63;2.77;;;6.40;99.90;;;;;;5050957;28;20426;-48
2023/04/19 05:37:40;;;;;;;8.97;3.10;;;6.30;99.90;;;;;;5051251;28;20479;-48
2023/04/19 05:40:09;;;;;;;8.00;3.47;;;6.50;99.90;;;;;;5051452;28;20439;-48
2023/04/19 05:42:37;;;;;;;6.50;2.93;;;6.50;99.90;;;;;;5051975;28;20553;-46
2023/04/19 05:45:07;;;;;;;4.43;3.37;;;6.40;99.90;;;;;;5051904;28;20450;-48
2023/04/19 05:47:34;;;;;;;8.60;2.80;;;6.60;99.90;;;;;;5050903;28;20522;-49
2023/04/19 05:50:30;;;;;;;12.03;3.33;;;6.70;99.90;;;;;;5038822;28;20456;-48
2023/04/19 05:53:20;;;;;;;6.33;2.73;;;6.80;99.90;;;;;;5050028;28;20459;-47
2023/04/19 05:55:52;;;;;;;6.43;2.57;;;7.10;99.90;;;;;;5049975;28;20510;-45
2023/04/19 05:58:19;;;;;;;4.87;2.93;;;7.00;99.90;;;;;;5049618;28;20457;-46
2023/04/19 06:00:47;;;;;;;5.97;3.00;;;7.00;99.90;;;;;;5049764;28;20580;-47
2023/04/19 06:03:18;;;;;;;3.60;2.30;;;7.30;99.90;;;;;;5049931;28;20996;-47
2023/04/19 06:05:45;;;;;;;6.03;2.90;;;7.00;99.90;;;;;;5049894;28;20463;-47
2023/04/19 06:08:15;;;;;;;13.00;3.10;;;7.00;99.90;;;;;;5053225;28;20456;-46
2023/04/19 06:10:46;;;;;;;8.60;2.83;;;7.10;99.90;;;;;;5053011;28;20892;-46
2023/04/19 06:13:14;;;;;;;8.07;2.80;;;7.40;99.90;;;;;;5054554;28;20916;-47
2023/04/19 06:15:42;;;;;;;4.50;2.57;;;7.50;99.90;;;;;;5053563;28;20442;-48
2023/04/19 06:18:10;;;;;;;6.23;2.20;;;7.50;99.90;;;;;;5054543;28;20469;-48
2023/04/19 06:20:37;;;;;;;5.33;2.97;;;7.30;99.90;;;;;;5054952;28;20470;-48
2023/04/19 06:23:04;;;;;;;10.00;2.70;;;7.70;99.90;;;;;;5053143;28;20465;-46
2023/04/19 06:25:33;;;;;;;8.23;2.53;;;7.50;99.90;;;;;;5054814;28;20488;-51
2023/04/19 06:28:01;;;;;;;6.27;2.33;;;7.90;99.90;;;;;;5053423;28;20484;-47
2023/04/19 06:30:29;;;;;;;5.83;2.60;;;7.60;99.90;;;;;;5052348;28;20613;-47
2023/04/19 06:32:56;;;;;;;4.90;1.87;;;7.90;99.90;;;;;;5053931;28;20439;-47
2023/04/19 06:35:24;;;;;;;8.03;4.10;;;7.70;99.90;;;;;;5053844;28;20432;-47
2023/04/19 06:37:51;;;;;;;4.17;2.33;;;8.20;99.90;;;;;;5054323;28;20416;-47
2023/04/19 06:40:18;;;;;;;4.60;2.40;;;7.90;99.90;;;;;;5052840;28;20437;-47
2023/04/19 06:42:45;;;;;;;30.63;6.03;;;8.10;99.90;;;;;;5052198;28;20494;-48
2023/04/19 06:45:13;;;;;;;60.17;11.03;;;7.90;99.90;;;;;;5052303;28;20941;-47
2023/04/19 06:47:42;;;;;;;20.50;7.73;;;8.20;99.90;;;;;;5053766;28;20427;-46
2023/04/19 06:50:10;;;;;;;66.10;15.83;;;8.20;99.90;;;;;;5051736;28;20435;-46
2023/04/19 06:52:37;;;;;;;12.20;3.90;;;8.10;99.90;;;;;;5053509;28;20425;-47
2023/04/19 06:55:05;;;;;;;6.90;2.50;;;8.40;99.90;;;;;;5050727;28;20430;-48
2023/04/19 06:57:32;;;;;;;6.80;2.30;;;8.90;99.90;;;;;;5053385;28;20221;-49
2023/04/19 06:59:59;;;;;;;18.53;3.93;;;8.70;99.90;;;;;;5053210;28;20430;-48
2023/04/19 07:02:26;;;;;;;14.87;3.03;;;8.70;99.90;;;;;;5052511;28;20459;-49
2023/04/19 07:04:54;;;;;;;6.60;2.60;;;8.70;99.90;;;;;;5053109;28;20477;-47
2023/04/19 07:07:21;;;;;;;9.47;3.00;;;9.00;99.90;;;;;;5053454;28;20897;-46
2023/04/19 07:09:48;;;;;;;5.40;2.13;;;8.70;99.90;;;;;;5053199;28;20525;-48
2023/04/19 07:12:17;;;;;;;8.47;2.50;;;8.90;99.90;;;;;;5053479;28;20760;-47
2023/04/19 07:14:47;;;;;;;6.43;2.57;;;8.80;99.90;;;;;;5054286;28;20454;-48
2023/04/19 07:17:17;;;;;;;3.93;2.27;;;8.90;99.90;;;;;;5053838;28;20393;-47
2023/04/19 07:19:47;;;;;;;7.60;2.23;;;8.40;99.90;;;;;;5051543;28;20449;-48
2023/04/19 07:22:16;;;;;;;6.53;2.50;;;8.80;99.70;;;;;;5054109;28;20433;-48
2023/04/19 07:24:43;;;;;;;4.53;2.47;;;9.10;99.60;;;;;;5052841;28;20988;-47
2023/04/19 07:27:10;;;;;;;6.63;2.77;;;9.10;99.60;;;;;;5053991;28;20435;-48
2023/04/19 07:29:39;;;;;;;10.13;3.20;;;9.00;99.20;;;;;;5053584;28;20459;-49
2023/04/19 07:32:06;;;;;;;2.80;2.17;;;8.90;98.90;;;;;;5052137;28;20462;-48
2023/04/19 07:34:33;;;;;;;7.00;2.37;;;9.00;98.60;;;;;;5052608;28;20439;-47
2023/04/19 07:37:00;;;;;;;4.50;2.43;;;9.30;98.90;;;;;;5052480;28;20459;-47
2023/04/19 07:39:29;;;;;;;6.17;2.50;;;9.30;97.50;;;;;;5052321;28;20516;-47
2023/04/19 07:41:56;;;;;;;4.43;2.43;;;9.30;97.90;;;;;;5051844;28;20540;-47
2023/04/19 07:44:24;;;;;;;6.00;2.63;;;9.30;97.50;;;;;;5052440;28;20398;-46
2023/04/19 07:46:51;;;;;;;4.60;2.10;;;9.10;97.20;;;;;;5052418;28;20448;-47
2023/04/19 07:49:19;;;;;;;14.20;3.07;;;9.40;97.00;;;;;;5052400;28;20449;-47
2023/04/19 07:51:45;;;;;;;3.97;2.47;;;9.40;97.20;;;;;;5051365;28;20523;-49
2023/04/19 07:54:15;;;;;;;5.57;2.50;;;9.40;96.70;;;;;;5052267;28;20435;-47
2023/04/19 07:56:43;;;;;;;4.50;2.57;;;9.50;96.10;;;;;;5051077;28;20416;-47
2023/04/19 07:59:10;;;;;;;3.87;1.80;;;9.50;95.80;;;;;;5051869;28;20450;-47
2023/04/19 08:01:37;;;;;;;7.67;2.57;;;9.60;95.70;;;;;;5051660;22;20558;-50
2023/04/19 08:04:04;;;;;;;6.10;2.43;;;9.70;95.50;;;;;;5011099;28;20522;-50
2023/04/19 08:06:32;;;;;;;6.03;2.60;;;9.70;94.70;;;;;;5010485;28;20476;-50
2023/04/19 08:08:59;;;;;;;3.73;2.50;;;9.70;94.20;;;;;;5012092;28;20897;-50
2023/04/19 08:11:26;;;;;;;5.13;2.57;;;9.90;94.00;;;;;;5012624;28;20460;-49
2023/04/19 08:13:54;;;;;;;21.47;3.40;;;9.80;93.90;;;;;;5010894;28;20800;-49
2023/04/19 08:16:21;;;;;;;8.63;3.43;;;9.80;93.70;;;;;;5011165;28;20463;-48
2023/04/19 08:18:50;;;;;;;6.67;2.80;;;10.00;93.30;;;;;;5012321;28;20437;-50
2023/04/19 08:21:17;;;;;;;3.57;2.50;;;10.00;92.80;;;;;;5012328;28;20465;-50
2023/04/19 08:23:44;;;;;;;14.27;3.20;;;10.00;92.30;;;;;;5012583;28;20483;-50
2023/04/19 08:26:11;;;;;;;3.20;2.57;;;10.20;92.80;;;;;;5011107;28;20499;-50
2023/04/19 08:28:38;;;;;;;4.00;2.57;;;10.20;92.20;;;;;;5010765;28;20783;-49
2023/04/19 08:31:07;;;;;;;6.97;3.27;;;10.10;91.80;;;;;;5011656;28;20839;-50
2023/04/19 08:33:36;;;;;;;7.67;2.60;;;10.20;91.90;;;;;;5011127;28;20445;-50
2023/04/19 08:36:04;;;;;;;8.63;3.03;;;10.30;91.60;;;;;;5011070;28;20449;-49
2023/04/19 08:38:33;;;;;;;5.43;3.50;;;10.30;91.10;;;;;;5011688;28;20495;-50
2023/04/19 08:41:02;;;;;;;4.07;3.10;;;10.60;91.20;;;;;;5012121;28;20535;-49
2023/04/19 08:43:32;;;;;;;5.70;3.13;;;10.50;91.20;;;;;;5012260;28;20419;-50
2023/04/19 08:45:59;;;;;;;6.33;3.10;;;10.60;91.20;;;;;;5010504;28;20451;-50
2023/04/19 08:48:29;;;;;;;6.93;3.80;;;10.60;90.70;;;;;;5011256;28;20506;-49
2023/04/19 08:50:59;;;;;;;15.73;3.73;;;11.00;90.80;;;;;;5011993;28;20946;-50
2023/04/19 08:53:28;;;;;;;6.60;2.73;;;11.00;89.50;;;;;;5010592;28;20450;-48
2023/04/19 08:55:57;;;;;;;6.50;3.17;;;11.30;89.40;;;;;;5011860;28;20959;-50
2023/04/19 08:58:25;;;;;;;6.70;3.27;;;11.00;88.70;;;;;;5010489;28;20862;-50
2023/04/19 09:00:52;;;;;;;7.10;2.93;;;11.30;89.80;;;;;;5011685;28;20822;-49
2023/04/19 09:03:18;;;;;;;4.60;2.87;;;11.40;88.90;;;;;;5012252;28;20472;-49
2023/04/19 09:05:47;;;;;;;5.60;3.23;;;11.50;88.90;;;;;;5010533;28;20560;-49
2023/04/19 09:08:25;;;;;;;7.53;2.93;;;11.50;87.40;;;;;;5010867;28;20420;-48
2023/04/19 09:10:57;;;;;;;9.10;3.13;;;11.90;86.30;;;;;;5011605;28;20927;-49
2023/04/19 09:13:24;;;;;;;7.10;3.47;;;11.50;85.60;;;;;;5011738;28;20430;-49
2023/04/19 09:15:53;;;;;;;4.77;3.00;;;11.60;85.40;;;;;;5011004;28;20534;-47
2023/04/19 09:18:20;;;;;;;9.53;3.20;;;11.50;85.70;;;;;;5011577;28;20914;-49
2023/04/19 09:20:49;;;;;;;4.47;2.80;;;11.50;86.10;;;;;;5010437;28;21010;-51
2023/04/19 09:23:17;;;;;;;7.83;3.50;;;11.60;86.00;;;;;;5010971;28;21071;-50
2023/04/19 09:25:52;;;;;;;5.13;3.27;;;11.60;84.70;;;;;;5011973;28;20455;-50
2023/04/19 09:28:20;;;;;;;12.93;3.07;;;11.60;83.30;;;;;;5010611;28;20525;-49
2023/04/19 09:30:51;;;;;;;6.23;3.20;;;11.60;82.40;;;;;;5011724;28;20971;-49
2023/04/19 09:33:35;;;;;;;16.13;4.20;;;11.60;83.20;;;;;;5010642;28;20527;-50
2023/04/19 09:36:04;;;;;;;11.40;3.47;;;12.10;83.00;;;;;;5012148;28;20452;-49
2023/04/19 09:38:45;;;;;;;7.53;3.50;;;11.60;83.30;;;;;;5010135;28;20424;-49
2023/04/19 09:41:12;;;;;;;6.93;3.20;;;11.50;83.60;;;;;;5012851;28;20486;-48
2023/04/19 09:43:42;;;;;;;12.03;4.27;;;11.00;82.50;;;;;;5016077;28;20430;-49
2023/04/19 09:46:30;;;;;;;7.30;3.33;;;11.60;83.10;;;;;;5014046;28;20598;-48
2023/04/19 09:49:16;;;;;;;6.17;2.90;;;11.50;83.20;;;;;;5015305;28;20444;-49
2023/04/19 09:51:45;;;;;;;7.23;3.50;;;11.50;82.90;;;;;;5016142;28;20545;-48
2023/04/19 09:54:14;;;;;;;5.50;2.90;;;11.50;82.20;;;;;;5014120;28;20509;-49
2023/04/19 09:56:41;;;;;;;6.07;3.07;;;11.50;82.00;;;;;;5013667;28;20501;-49
2023/04/19 09:59:09;;;;;;;6.57;3.10;;;11.50;82.00;;;;;;5014011;28;20413;-48
2023/04/19 10:01:39;;;;;;;5.45;3.47;;;11.80;81.60;;;;;;5014274;28;20442;-49
2023/04/19 10:04:07;;;;;;;10.03;3.33;;;12.00;79.80;;;;;;5014025;28;20211;-51
2023/04/19 10:06:35;;;;;;;5.97;3.20;;;11.60;80.20;;;;;;5015367;28;20788;-50
2023/04/19 10:09:05;;;;;;;6.90;4.30;;;11.60;80.40;;;;;;5014781;28;20431;-49
2023/04/19 10:11:37;;;;;;;7.60;3.70;;;11.60;80.10;;;;;;5013274;28;20826;-48
2023/04/19 10:14:06;;;;;;;5.43;3.13;;;11.70;81.00;;;;;;5014946;28;20444;-50
2023/04/19 10:16:33;;;;;;;8.10;3.93;;;11.70;81.20;;;;;;5013176;28;20913;-49
2023/04/19 10:19:02;;;;;;;4.63;2.97;;;12.00;81.20;;;;;;5013079;28;20537;-49
2023/04/19 10:21:31;;;;;;;9.07;4.00;;;12.10;81.30;;;;;;5015081;28;20434;-49
2023/04/19 10:23:59;;;;;;;5.47;3.80;;;12.30;80.60;;;;;;5014437;28;20409;-50
2023/04/19 10:26:28;;;;;;;5.40;3.43;;;11.90;80.70;;;;;;5013010;28;20800;-49
2023/04/19 10:28:56;;;;;;;8.67;3.47;;;12.10;79.80;;;;;;5014059;28;20436;-49
2023/04/19 10:31:25;;;;;;;7.43;3.50;;;11.80;79.90;;;;;;5012802;28;20781;-49
2023/04/19 10:33:56;;;;;;;5.70;3.07;;;11.90;79.80;;;;;;5013980;28;20427;-50
2023/04/19 10:36:28;;;;;;;3.77;2.50;;;11.90;80.60;;;;;;5012847;28;20422;-48
2023/04/19 10:38:57;;;;;;;18.23;4.40;;;12.00;81.00;;;;;;5013941;28;20879;-48
2023/04/19 10:41:24;;;;;;;4.77;3.13;;;12.10;79.90;;;;;;5012850;28;20887;-49
2023/04/19 10:44:10;;;;;;;6.00;3.20;;;11.90;79.40;;;;;;5012311;28;20809;-49
2023/04/19 10:46:39;;;;;;;10.30;3.93;;;11.80;79.30;;;;;;5012330;28;20590;-49
2023/04/19 10:49:08;;;;;;;7.07;3.80;;;12.20;80.30;;;;;;5012279;28;20451;-49
2023/04/19 10:51:41;;;;;;;10.53;3.90;;;11.90;79.10;;;;;;5014039;28;20577;-50
2023/04/19 10:54:08;;;;;;;4.70;3.20;;;12.00;79.00;;;;;;5013235;28;20432;-49
2023/04/19 10:56:59;;;;;;;7.53;3.73;;;11.90;79.80;;;;;;5013812;28;20478;-49
2023/04/19 10:59:29;;;;;;;7.13;3.30;;;12.00;79.70;;;;;;5013468;28;20630;-49
2023/04/19 11:02:00;;;;;;;9.80;4.20;;;12.10;80.50;;;;;;5012320;28;20468;-49
2023/04/19 11:04:59;;;;;;;15.90;3.77;;;12.40;80.50;;;;;;5012623;28;20950;-49
2023/04/19 11:07:27;;;;;;;8.27;3.70;;;12.10;80.10;;;;;;5013602;28;20478;-50
2023/04/19 11:09:56;;;;;;;8.70;3.63;;;12.30;79.20;;;;;;5013097;28;20433;-50
2023/04/19 11:12:23;;;;;;;13.00;3.90;;;12.50;79.50;;;;;;5013426;28;20506;-50
2023/04/19 11:14:56;;;;;;;7.00;3.53;;;12.50;79.20;;;;;;5013223;28;20458;-49
2023/04/19 11:17:26;;;;;;;10.03;3.60;;;12.60;79.50;;;;;;5013663;28;20435;-49
2023/04/19 11:19:54;;;;;;;5.57;3.10;;;12.60;80.00;;;;;;5013080;28;20421;-49
2023/04/19 11:22:26;;;;;;;6.37;3.37;;;12.60;78.70;;;;;;5012182;28;20442;-50
2023/04/19 11:24:53;;;;;;;5.60;2.83;;;12.70;77.50;;;;;;5013364;28;20402;-50
2023/04/19 11:27:21;;;;;;;5.33;3.03;;;12.70;77.80;;;;;;5011902;28;21113;-50
2023/04/19 11:29:52;;;;;;;8.90;2.83;;;12.70;77.40;;;;;;5011637;28;20450;-50
2023/04/19 11:32:22;;;;;;;8.53;3.70;;;12.70;76.40;;;;;;5011671;28;20578;-49
2023/04/19 11:34:48;;;;;;;11.87;4.40;;;12.70;76.70;;;;;;5013462;28;20436;-49
2023/04/19 11:37:18;;;;;;;6.50;3.40;;;12.80;76.60;;;;;;5013193;28;20438;-48
2023/04/19 11:39:46;;;;;;;9.60;3.60;;;12.80;76.30;;;;;;5010972;28;20409;-50
2023/04/19 11:42:20;;;;;;;3.30;2.90;;;12.90;75.50;;;;;;5013179;28;20526;-49
2023/04/19 11:44:50;;;;;;;18.60;3.93;;;13.10;74.80;;;;;;5013176;28;20464;-49
2023/04/19 11:47:21;;;;;;;5.13;3.03;;;12.90;75.60;;;;;;5013431;28;20863;-49
2023/04/19 11:49:48;;;;;;;9.27;3.90;;;13.10;74.70;;;;;;5011183;28;20432;-49
2023/04/19 11:52:22;;;;;;;29.20;4.60;;;13.10;74.70;;;;;;5011409;28;21017;-50
2023/04/19 11:54:49;;;;;;;8.70;3.30;;;12.90;73.80;;;;;;5011609;28;20417;-50
2023/04/19 11:57:28;;;;;;;13.10;4.10;;;12.90;73.00;;;;;;5012682;28;21028;-50
2023/04/19 12:00:10;;;;;;;10.50;3.83;;;13.20;73.10;;;;;;5011119;28;20418;-48
2023/04/19 12:02:43;;;;;;;24.90;5.40;;;13.10;72.10;;;;;;5012732;28;20465;-50
2023/04/19 12:05:13;;;;;;;43.43;11.23;;;13.10;70.90;;;;;;5012777;28;20432;-49
2023/04/19 12:07:59;;;;;;;11.03;3.73;;;13.10;71.40;;;;;;5012995;28;20488;-49
2023/04/19 12:10:26;;;;;;;8.20;3.40;;;13.40;70.90;;;;;;5012412;28;21022;-49
2023/04/19 12:12:53;;;;;;;7.60;3.37;;;13.30;70.10;;;;;;5010931;28;20789;-50
2023/04/19 12:15:20;;;;;;;7.50;3.70;;;13.50;70.80;;;;;;5011037;28;20454;-50
2023/04/19 12:18:00;;;;;;;8.40;3.30;;;13.60;71.40;;;;;;5010949;28;20509;-49
2023/04/19 12:20:32;;;;;;;7.00;3.80;;;13.60;71.20;;;;;;5012020;28;20410;-50
2023/04/19 12:22:59;;;;;;;5.80;3.23;;;13.40;71.40;;;;;;5011894;28;20467;-50
2023/04/19 12:25:30;;;;;;;7.17;3.83;;;13.60;71.90;;;;;;5011684;28;20433;-49
2023/04/19 12:27:57;;;;;;;5.40;3.70;;;13.60;71.70;;;;;;5011958;28;20490;-49
2023/04/19 12:30:25;;;;;;;6.33;3.07;;;13.60;71.20;;;;;;5010646;28;20781;-50
2023/04/19 12:32:54;;;;;;;8.53;3.90;;;13.60;71.50;;;;;;5012086;28;20537;-49
2023/04/19 12:35:22;;;;;;;6.10;3.30;;;13.50;71.60;;;;;;5011142;28;20520;-50
2023/04/19 12:37:49;;;;;;;8.50;3.60;;;13.60;70.50;;;;;;5010710;28;20444;-51
2023/04/19 12:40:16;;;;;;;9.37;3.83;;;13.50;71.10;;;;;;5010427;28;20422;-50
2023/04/19 12:42:43;;;;;;;5.80;3.53;;;13.70;70.90;;;;;;5012342;28;20503;-50
2023/04/19 12:45:12;;;;;;;8.13;4.00;;;13.60;71.50;;;;;;5011565;28;20948;-51
2023/04/19 12:47:39;;;;;;;9.97;4.10;;;13.60;71.90;;;;;;5011886;28;20551;-49
2023/04/19 12:50:07;;;;;;;10.33;4.20;;;13.40;70.90;;;;;;5012103;28;20410;-49
2023/04/19 12:52:36;;;;;;;11.53;4.43;;;13.20;71.30;;;;;;5012011;28;20516;-49
2023/04/19 12:55:06;;;;;;;9.33;4.13;;;13.20;71.20;;;;;;5011841;28;20913;-50
2023/04/19 12:57:33;;;;;;;12.60;5.00;;;13.20;72.40;;;;;;5010818;28;20444;-51
2023/04/19 13:00:00;;;;;;;9.00;4.73;;;13.20;72.00;;;;;;5011391;28;20805;-49
2023/04/19 13:02:27;;;;;;;12.33;4.13;;;13.30;72.10;;;;;;5010321;28;20457;-49